Time;durP1;ratioP1;P1;durP2;ratioP2;P2;SDS_P1;SDS_P2;PMS_P1;PMS_P2;Temp;Humidity;BMP_temperature;BMP_pressure;BME280_temperature;BME280_humidity;BME280_pressure;Samples;Min_cycle;Max_cycle;Signal;HPM_P1;HPM_P2
2023/11/01 00:01:01;;;;;;;4.97;1.00;;;11.70;1.00;;;;;;5010218;28;20389;-71
2023/11/01 00:03:27;;;;;;;4.50;0.93;;;11.80;1.00;;;;;;5012739;28;20471;-70
2023/11/01 00:05:52;;;;;;;4.27;0.93;;;11.80;1.00;;;;;;5020304;28;20403;-70
2023/11/01 00:08:18;;;;;;;4.30;0.80;;;11.90;1.00;;;;;;5016590;28;20773;-70
2023/11/01 00:10:43;;;;;;;4.05;0.60;;;11.90;1.00;;;;;;5010144;28;20409;-70
2023/11/01 00:13:09;;;;;;;4.00;0.70;;;11.90;1.00;;;;;;5024235;28;20425;-70
2023/11/01 00:15:35;;;;;;;4.20;0.80;;;11.90;1.00;;;;;;5017347;28;20399;-70
2023/11/01 00:18:01;;;;;;;3.92;0.60;;;11.90;1.00;;;;;;5008859;28;20487;-70
2023/11/01 00:20:26;;;;;;;4.50;0.80;;;11.90;1.00;;;;;;5019848;28;20495;-70
2023/11/01 00:22:52;;;;;;;4.15;0.55;;;12.00;1.00;;;;;;5017543;28;20413;-70
2023/11/01 00:25:17;;;;;;;3.87;0.60;;;11.90;1.00;;;;;;5023051;28;20465;-70
2023/11/01 00:27:43;;;;;;;11.50;0.70;;;11.90;1.00;;;;;;5025368;28;20395;-71
2023/11/01 00:30:09;;;;;;;4.30;0.60;;;11.80;1.00;;;;;;5027638;28;20403;-70
2023/11/01 00:32:35;;;;;;;4.30;0.80;;;11.80;1.00;;;;;;5008522;28;20569;-70
2023/11/01 00:35:01;;;;;;;4.50;0.75;;;11.90;1.00;;;;;;5017849;28;20890;-70
2023/11/01 00:37:27;;;;;;;4.10;0.90;;;11.80;1.00;;;;;;5029838;28;20484;-71
2023/11/01 00:39:52;;;;;;;4.20;0.60;;;11.80;1.00;;;;;;5027605;28;20415;-71
2023/11/01 00:42:18;;;;;;;4.67;0.83;;;11.90;1.00;;;;;;5014126;28;20402;-71
2023/11/01 00:44:43;;;;;;;4.20;0.70;;;11.90;1.00;;;;;;5013326;28;20940;-70
2023/11/01 00:47:09;;;;;;;5.00;0.77;;;11.80;1.00;;;;;;5020469;28;20395;-70
2023/11/01 00:49:34;;;;;;;4.60;0.60;;;11.90;1.00;;;;;;5011409;28;20399;-70
2023/11/01 00:52:00;;;;;;;6.83;0.63;;;12.00;1.00;;;;;;5023323;28;20891;-70
2023/11/01 00:54:25;;;;;;;4.30;0.80;;;11.90;1.00;;;;;;5018474;28;20412;-70
2023/11/01 00:56:52;;;;;;;4.15;0.77;;;11.90;1.00;;;;;;5008178;28;20413;-71
2023/11/01 00:59:18;;;;;;;3.83;0.55;;;11.90;1.00;;;;;;5007067;28;20404;-70
2023/11/01 01:01:44;;;;;;;3.90;0.70;;;11.90;1.00;;;;;;5007317;28;20816;-70
2023/11/01 01:04:09;;;;;;;4.00;0.70;;;12.00;1.00;;;;;;5011475;28;20408;-70
2023/11/01 01:06:35;;;;;;;4.27;0.87;;;12.00;1.00;;;;;;5029612;28;20430;-70
2023/11/01 01:09:00;;;;;;;5.20;0.90;;;11.90;1.00;;;;;;5023402;28;20400;-70
2023/11/01 01:11:26;;;;;;;3.80;0.50;;;12.00;1.00;;;;;;5022308;28;20446;-70
2023/11/01 01:13:51;;;;;;;5.00;0.90;;;12.00;1.00;;;;;;5011919;28;20436;-70
2023/11/01 01:16:17;;;;;;;4.40;0.90;;;12.00;1.00;;;;;;5021349;28;20410;-71
2023/11/01 01:18:42;;;;;;;4.10;0.80;;;11.90;1.00;;;;;;5027481;28;20468;-70
2023/11/01 01:21:08;;;;;;;4.60;0.75;;;12.00;1.00;;;;;;5028493;28;20402;-70
2023/11/01 01:23:33;;;;;;;4.22;0.70;;;12.00;1.00;;;;;;5022357;28;20784;-70
2023/11/01 01:25:59;;;;;;;4.50;0.93;;;11.90;1.00;;;;;;5012107;28;20790;-70
2023/11/01 01:28:24;;;;;;;4.10;0.50;;;11.90;1.00;;;;;;5025232;28;20387;-71
2023/11/01 01:30:50;;;;;;;3.75;0.63;;;12.00;1.00;;;;;;5028377;28;20477;-70
2023/11/01 01:33:15;;;;;;;4.00;0.50;;;12.00;1.00;;;;;;5025879;28;20485;-70
2023/11/01 01:35:41;;;;;;;3.87;0.60;;;12.10;1.00;;;;;;5028095;28;20949;-70
2023/11/01 01:38:06;;;;;;;3.70;0.60;;;12.20;1.00;;;;;;5029040;28;20383;-70
2023/11/01 01:40:34;;;;;;;5.80;0.60;;;12.20;1.00;;;;;;5019448;28;20709;-70
2023/11/01 01:43:17;;;;;;;4.10;0.68;;;12.20;1.00;;;;;;5009805;28;20851;-70
2023/11/01 01:45:43;;;;;;;4.40;0.60;;;12.20;1.00;;;;;;5025347;28;20413;-70
2023/11/01 01:48:08;;;;;;;5.70;0.60;;;12.20;1.00;;;;;;5032178;28;20391;-70
2023/11/01 01:50:34;;;;;;;7.20;0.70;;;12.30;1.00;;;;;;5024327;28;20404;-70
2023/11/01 01:53:00;;;;;;;4.57;0.83;;;12.30;1.00;;;;;;5022366;28;20411;-70
2023/11/01 01:55:26;;;;;;;5.13;0.82;;;12.40;1.00;;;;;;5031627;28;20426;-70
2023/11/01 01:57:52;;;;;;;3.80;0.50;;;12.50;1.00;;;;;;5020602;28;20408;-70
2023/11/01 02:00:18;;;;;;;4.68;0.70;;;12.50;1.00;;;;;;5030683;28;20449;-70
2023/11/01 02:02:45;;;;;;;4.60;0.80;;;12.60;1.00;;;;;;5048615;28;20394;-70
2023/11/01 02:05:11;;;;;;;4.30;0.60;;;12.60;1.00;;;;;;5032663;28;20893;-70
2023/11/01 02:07:38;;;;;;;4.68;0.70;;;12.60;1.00;;;;;;5032539;28;20490;-70
2023/11/01 02:10:05;;;;;;;4.07;0.60;;;12.50;1.00;;;;;;5032122;28;20398;-70
2023/11/01 02:12:31;;;;;;;4.20;0.60;;;12.50;1.00;;;;;;5022506;28;20556;-70
2023/11/01 02:14:56;;;;;;;8.17;0.80;;;12.50;1.00;;;;;;5013610;28;20503;-70
2023/11/01 02:17:22;;;;;;;3.80;0.40;;;12.40;1.00;;;;;;5011934;28;20883;-70
2023/11/01 02:19:47;;;;;;;4.40;0.90;;;12.40;1.00;;;;;;5012311;28;20413;-70
2023/11/01 02:22:13;;;;;;;4.57;0.65;;;12.40;1.00;;;;;;5023091;28;20558;-70
2023/11/01 02:24:38;;;;;;;4.03;0.70;;;12.40;1.00;;;;;;5031526;28;20912;-70
2023/11/01 02:27:04;;;;;;;3.80;0.50;;;12.40;1.00;;;;;;5031553;28;20453;-70
2023/11/01 02:29:30;;;;;;;5.50;0.73;;;12.30;1.00;;;;;;5013804;28;20401;-70
2023/11/01 02:31:55;;;;;;;4.23;0.80;;;12.20;1.00;;;;;;5012178;28;20995;-70
2023/11/01 02:34:21;;;;;;;4.10;0.50;;;12.20;1.00;;;;;;5016167;28;20411;-70
2023/11/01 02:36:47;;;;;;;5.95;1.27;;;12.20;1.00;;;;;;5021633;28;20414;-70
2023/11/01 02:39:13;;;;;;;4.90;0.80;;;12.20;1.00;;;;;;5029411;28;20403;-70
2023/11/01 02:41:39;;;;;;;5.80;0.90;;;12.30;1.00;;;;;;5030752;28;20553;-70
2023/11/01 02:44:06;;;;;;;4.00;0.50;;;12.20;1.00;;;;;;5027248;28;20835;-70
2023/11/01 02:46:32;;;;;;;3.80;0.50;;;12.20;1.00;;;;;;5029107;28;20399;-70
2023/11/01 02:48:57;;;;;;;4.10;0.50;;;12.20;1.00;;;;;;5012282;28;20467;-70
2023/11/01 02:51:23;;;;;;;4.10;0.60;;;12.30;1.00;;;;;;5019235;28;20403;-70
2023/11/01 02:53:48;;;;;;;3.97;0.57;;;12.20;1.00;;;;;;5031690;28;20390;-70
2023/11/01 02:56:14;;;;;;;4.00;0.50;;;12.20;1.00;;;;;;5029667;28;20967;-70
2023/11/01 02:58:40;;;;;;;4.00;0.63;;;12.30;1.00;;;;;;5030094;28;20489;-70
2023/11/01 03:01:06;;;;;;;4.10;0.43;;;12.30;1.00;;;;;;5031369;28;20402;-70
2023/11/01 03:03:32;;;;;;;4.20;0.60;;;12.20;1.00;;;;;;5014017;28;20408;-70
2023/11/01 03:05:58;;;;;;;4.25;0.60;;;12.20;1.00;;;;;;5011441;28;20473;-70
2023/11/01 03:08:23;;;;;;;4.70;0.50;;;12.10;1.00;;;;;;5018940;28;20976;-70
2023/11/01 03:10:49;;;;;;;3.80;0.47;;;12.20;1.00;;;;;;5017855;28;20407;-70
2023/11/01 03:13:14;;;;;;;4.10;0.80;;;12.10;1.00;;;;;;5008789;28;20515;-70
2023/11/01 03:15:40;;;;;;;4.17;0.50;;;12.20;1.00;;;;;;5028836;28;20429;-70
2023/11/01 03:18:06;;;;;;;6.10;0.60;;;12.20;1.00;;;;;;5031684;28;20386;-70
2023/11/01 03:20:32;;;;;;;8.70;0.70;;;12.20;1.00;;;;;;5013823;28;20408;-70
2023/11/01 03:22:57;;;;;;;5.68;0.80;;;12.20;1.00;;;;;;5017362;28;20642;-70
2023/11/01 03:25:23;;;;;;;8.50;0.90;;;12.10;1.00;;;;;;5033067;28;20387;-70
2023/11/01 03:33:57;;;;;;;4.30;0.70;;;12.00;1.00;;;;;;4966673;28;20517;-69
2023/11/01 03:36:23;;;;;;;3.80;0.52;;;12.00;1.00;;;;;;4991951;28;20481;-70
2023/11/01 03:38:48;;;;;;;4.10;0.70;;;11.90;1.00;;;;;;4999838;28;20862;-71
2023/11/01 03:41:14;;;;;;;5.00;1.00;;;11.60;1.00;;;;;;5010026;28;20416;-69
2023/11/01 03:43:41;;;;;;;4.43;0.60;;;11.70;1.00;;;;;;4998098;28;20789;-70
2023/11/01 03:46:06;;;;;;;4.00;0.70;;;11.50;1.00;;;;;;4989527;28;20421;-70
2023/11/01 03:48:32;;;;;;;3.90;0.60;;;11.60;1.00;;;;;;4990182;28;20409;-70
2023/11/01 03:50:58;;;;;;;5.00;0.67;;;11.70;1.00;;;;;;4995802;28;20454;-69
2023/11/01 03:53:24;;;;;;;4.90;0.60;;;11.60;1.00;;;;;;4999583;28;20416;-70
2023/11/01 03:55:49;;;;;;;4.15;0.77;;;11.60;1.00;;;;;;5009140;28;20408;-70
2023/11/01 03:58:15;;;;;;;4.30;0.70;;;11.60;1.00;;;;;;5009643;28;20519;-70
2023/11/01 04:00:41;;;;;;;4.28;0.68;;;11.50;1.00;;;;;;5009899;28;20428;-70
2023/11/01 04:03:07;;;;;;;4.13;0.63;;;11.60;1.00;;;;;;4992434;28;20804;-70
2023/11/01 04:05:33;;;;;;;6.60;0.60;;;11.50;1.00;;;;;;4992289;28;20792;-70
2023/11/01 04:07:58;;;;;;;4.60;0.60;;;11.50;1.00;;;;;;4991660;28;20414;-70
2023/11/01 04:10:24;;;;;;;7.53;0.70;;;11.60;1.00;;;;;;5002530;28;20413;-70
2023/11/01 04:12:50;;;;;;;4.20;0.80;;;11.60;1.00;;;;;;5005251;28;20440;-70
2023/11/01 04:15:16;;;;;;;5.00;0.68;;;11.50;1.00;;;;;;4998582;28;20967;-70
2023/11/01 04:17:42;;;;;;;4.50;0.40;;;11.50;1.00;;;;;;4989699;28;20502;-70
2023/11/01 04:20:08;;;;;;;4.37;0.83;;;11.50;1.00;;;;;;4990762;28;20577;-70
2023/11/01 04:22:36;;;;;;;8.70;1.00;;;11.50;1.00;;;;;;4994067;28;20473;-70
2023/11/01 04:25:03;;;;;;;4.50;0.70;;;11.60;1.00;;;;;;4994729;28;20489;-70
2023/11/01 04:27:33;;;;;;;3.88;0.50;;;11.60;1.00;;;;;;5003116;28;20396;-70
2023/11/01 04:29:58;;;;;;;6.40;0.73;;;11.60;1.00;;;;;;4997112;28;20402;-70
2023/11/01 04:32:28;;;;;;;5.90;0.60;;;11.50;1.00;;;;;;5003405;28;20417;-70
2023/11/01 04:34:55;;;;;;;4.70;0.80;;;11.40;1.00;;;;;;5003659;28;20405;-70
2023/11/01 04:37:22;;;;;;;3.80;0.40;;;11.30;1.00;;;;;;4989771;28;20394;-70
2023/11/01 04:39:48;;;;;;;5.00;0.50;;;11.20;1.00;;;;;;4989903;28;20406;-70
2023/11/01 04:42:17;;;;;;;5.60;0.88;;;11.20;1.00;;;;;;5007786;28;20408;-70
2023/11/01 04:44:45;;;;;;;6.10;0.80;;;11.20;1.00;;;;;;5009820;28;20403;-70
2023/11/01 04:47:12;;;;;;;3.90;0.50;;;11.10;1.00;;;;;;5009111;28;20878;-70
2023/11/01 04:49:38;;;;;;;4.00;0.55;;;11.10;1.00;;;;;;5009362;28;20399;-70
2023/11/01 04:52:06;;;;;;;4.10;0.55;;;11.10;1.00;;;;;;5009084;28;20416;-70
2023/11/01 04:54:35;;;;;;;6.60;0.70;;;11.30;1.00;;;;;;4990461;28;20486;-70
2023/11/01 04:57:01;;;;;;;3.90;0.50;;;11.20;1.00;;;;;;4989416;28;20513;-70
2023/11/01 04:59:31;;;;;;;5.30;0.50;;;11.10;1.00;;;;;;4989761;28;20383;-70
2023/11/01 05:01:57;;;;;;;3.90;0.50;;;11.00;1.00;;;;;;4989223;28;20573;-70
2023/11/01 05:04:23;;;;;;;4.05;0.65;;;11.10;1.00;;;;;;4989834;28;20475;-70
2023/11/01 05:06:50;;;;;;;5.80;0.57;;;11.10;1.00;;;;;;4989722;28;20529;-70
2023/11/01 05:09:16;;;;;;;5.10;0.70;;;11.10;1.00;;;;;;4989437;28;20395;-70
2023/11/01 05:11:43;;;;;;;4.32;0.50;;;11.00;1.00;;;;;;4999281;28;20418;-70
2023/11/01 05:14:08;;;;;;;4.28;0.80;;;10.90;1.00;;;;;;5000681;28;20413;-70
2023/11/01 05:16:34;;;;;;;4.67;0.73;;;10.90;1.00;;;;;;4989262;28;20387;-70
2023/11/01 05:18:59;;;;;;;4.77;0.60;;;10.90;1.00;;;;;;4989903;28;20473;-70
2023/11/01 05:21:25;;;;;;;6.63;0.75;;;10.90;1.00;;;;;;4994096;28;20763;-70
2023/11/01 05:23:50;;;;;;;3.90;0.50;;;10.90;1.00;;;;;;4993651;28;20713;-70
2023/11/01 05:26:16;;;;;;;3.87;0.47;;;10.90;1.00;;;;;;4993541;28;20449;-70
2023/11/01 05:28:42;;;;;;;4.60;0.73;;;10.90;1.00;;;;;;4993725;28;20395;-70
2023/11/01 05:31:11;;;;;;;4.90;0.67;;;10.90;1.00;;;;;;5010883;28;20771;-70
2023/11/01 05:33:36;;;;;;;4.70;0.80;;;10.80;1.00;;;;;;5012463;28;20486;-70
2023/11/01 05:36:06;;;;;;;4.07;0.68;;;10.70;1.00;;;;;;5002200;28;20457;-70
2023/11/01 05:38:35;;;;;;;4.00;0.73;;;10.70;1.00;;;;;;5001586;28;20739;-70
2023/11/01 05:41:00;;;;;;;9.70;0.98;;;10.60;1.00;;;;;;4993637;28;20407;-70
2023/11/01 05:43:26;;;;;;;6.80;0.70;;;10.60;1.00;;;;;;4999812;28;20401;-70
2023/11/01 05:45:51;;;;;;;3.97;0.63;;;10.60;1.00;;;;;;4995094;28;20557;-70
2023/11/01 05:48:18;;;;;;;6.00;0.80;;;10.50;1.00;;;;;;4992961;28;20864;-70
2023/11/01 05:50:44;;;;;;;4.90;0.63;;;10.50;1.00;;;;;;4994596;28;20452;-70
2023/11/01 05:53:10;;;;;;;4.30;0.90;;;10.50;1.00;;;;;;4997899;28;20436;-70
2023/11/01 05:55:37;;;;;;;10.50;0.90;;;10.50;1.00;;;;;;4992493;28;20399;-70
2023/11/01 05:58:07;;;;;;;5.50;0.77;;;10.50;1.00;;;;;;4992770;28;20391;-69
2023/11/01 06:00:33;;;;;;;3.80;0.50;;;10.50;1.00;;;;;;4992546;28;20738;-70
2023/11/01 06:02:59;;;;;;;4.32;0.65;;;10.40;1.00;;;;;;4994815;28;20403;-70
2023/11/01 06:05:24;;;;;;;4.70;0.70;;;10.40;1.00;;;;;;5012605;28;20400;-70
2023/11/01 06:07:50;;;;;;;4.17;1.00;;;10.40;1.00;;;;;;5012218;28;20492;-70
2023/11/01 06:10:15;;;;;;;10.80;0.80;;;10.30;1.00;;;;;;5012022;28;20381;-70
2023/11/01 06:12:41;;;;;;;4.57;0.68;;;10.20;1.00;;;;;;5012214;28;20464;-70
2023/11/01 06:15:10;;;;;;;3.88;0.47;;;10.20;1.00;;;;;;5010672;28;20409;-70
2023/11/01 06:17:36;;;;;;;3.90;0.73;;;10.20;1.00;;;;;;5012069;28;20408;-70
2023/11/01 06:20:02;;;;;;;3.92;0.40;;;10.40;1.00;;;;;;5012075;28;20408;-70
2023/11/01 06:22:28;;;;;;;3.80;0.50;;;10.40;1.00;;;;;;5012390;28;20389;-70
2023/11/01 06:24:54;;;;;;;4.43;0.90;;;10.50;1.00;;;;;;5012357;28;20400;-70
2023/11/01 06:27:20;;;;;;;4.90;0.70;;;10.50;1.00;;;;;;5012138;28;20400;-70
2023/11/01 06:29:45;;;;;;;3.77;0.30;;;10.50;1.00;;;;;;5011849;28;20393;-70
2023/11/01 06:32:11;;;;;;;7.10;0.73;;;10.40;1.00;;;;;;5009462;28;20948;-69
2023/11/01 06:34:37;;;;;;;4.00;0.50;;;10.60;1.00;;;;;;4993675;28;20411;-70
2023/11/01 06:37:04;;;;;;;4.40;0.60;;;10.70;1.00;;;;;;4998374;28;20396;-69
2023/11/01 06:39:29;;;;;;;4.18;0.50;;;10.80;1.00;;;;;;5011630;28;20388;-69
2023/11/01 06:41:55;;;;;;;4.23;0.60;;;10.80;1.00;;;;;;5012366;28;20393;-70
2023/11/01 06:44:20;;;;;;;4.10;0.60;;;10.80;1.00;;;;;;5011276;28;20397;-69
2023/11/01 06:46:46;;;;;;;4.00;0.50;;;10.90;1.00;;;;;;4995357;28;21010;-68
2023/11/01 06:49:11;;;;;;;4.40;0.70;;;11.10;1.00;;;;;;5008410;28;20891;-70
2023/11/01 06:51:37;;;;;;;4.00;0.50;;;11.20;1.00;;;;;;4998823;28;20402;-72
2023/11/01 06:54:02;;;;;;;5.00;0.80;;;11.30;1.00;;;;;;5010780;28;20507;-71
2023/11/01 06:56:28;;;;;;;6.20;0.63;;;11.60;1.00;;;;;;5010745;28;20413;-71
2023/11/01 06:58:53;;;;;;;4.57;0.70;;;11.70;1.00;;;;;;5010269;28;20416;-71
2023/11/01 07:01:19;;;;;;;4.60;1.10;;;11.70;1.00;;;;;;5010190;28;20821;-71
2023/11/01 07:03:45;;;;;;;4.60;0.90;;;11.80;1.00;;;;;;5008585;28;20422;-71
2023/11/01 07:06:11;;;;;;;4.45;0.75;;;12.00;1.00;;;;;;5000405;28;20492;-71
2023/11/01 07:08:37;;;;;;;4.40;0.80;;;12.20;1.00;;;;;;5006320;28;20851;-72
2023/11/01 07:11:03;;;;;;;4.20;0.70;;;12.30;1.00;;;;;;5009425;28;20491;-72
2023/11/01 07:13:29;;;;;;;4.10;0.60;;;12.60;1.00;;;;;;5009185;28;20435;-70
2023/11/01 07:15:54;;;;;;;4.87;0.70;;;12.90;1.00;;;;;;5003774;28;20829;-70
2023/11/01 07:18:20;;;;;;;5.70;1.00;;;13.40;1.00;;;;;;5009288;28;20412;-71
2023/11/01 07:20:45;;;;;;;4.60;0.80;;;13.60;1.00;;;;;;5009577;28;21079;-70
2023/11/01 07:23:11;;;;;;;5.10;1.08;;;13.50;1.00;;;;;;5010290;28;20470;-71
2023/11/01 07:25:36;;;;;;;4.20;0.70;;;13.40;1.00;;;;;;5008899;28;20487;-73
2023/11/01 07:28:02;;;;;;;4.10;0.70;;;14.30;1.00;;;;;;5009080;28;20890;-73
2023/11/01 07:30:27;;;;;;;4.60;0.90;;;15.40;1.00;;;;;;5005921;28;20896;-73
2023/11/01 07:32:53;;;;;;;5.43;1.00;;;16.20;99.90;;;;;;5009793;28;20535;-73
2023/11/01 07:35:18;;;;;;;4.40;0.60;;;16.80;99.90;;;;;;5007814;28;20453;-72
2023/11/01 07:37:44;;;;;;;6.00;0.90;;;17.00;99.90;;;;;;5009591;28;20412;-72
2023/11/01 07:40:10;;;;;;;4.90;0.90;;;17.00;99.90;;;;;;5010183;28;20385;-72
2023/11/01 07:42:38;;;;;;;4.87;0.60;;;;;;;;;;5005009;28;20831;-73
2023/11/01 07:45:05;;;;;;;4.40;0.70;;;18.30;99.90;;;;;;5005145;28;20405;-73
2023/11/01 07:47:31;;;;;;;4.50;0.70;;;18.90;99.90;;;;;;5012761;28;20406;-73
2023/11/01 07:49:56;;;;;;;4.90;0.70;;;19.60;99.90;;;;;;5006698;28;20969;-71
2023/11/01 07:52:22;;;;;;;4.90;1.00;;;20.60;99.90;;;;;;5007548;28;20804;-70
2023/11/01 07:54:47;;;;;;;6.10;0.90;;;20.90;99.90;;;;;;5008895;28;21919;-70
2023/11/01 07:57:14;;;;;;;4.30;0.50;;;21.00;99.90;;;;;;5003644;28;20408;-70
2023/11/01 07:59:39;;;;;;;5.22;1.00;;;20.60;99.90;;;;;;4999658;28;20419;-69
2023/11/01 08:02:06;;;;;;;4.47;0.70;;;20.30;99.90;;;;;;4994152;28;20409;-71
2023/11/01 08:04:31;;;;;;;4.30;0.50;;;20.50;99.90;;;;;;5006578;28;20759;-72
2023/11/01 08:06:57;;;;;;;5.50;0.70;;;20.60;99.90;;;;;;5004478;28;20424;-71
2023/11/01 08:09:22;;;;;;;6.95;1.05;;;20.30;99.90;;;;;;5007114;28;20397;-71
2023/11/01 08:11:49;;;;;;;5.90;1.00;;;;;;;;;;5002869;28;20516;-71
2023/11/01 08:14:14;;;;;;;5.20;0.90;;;20.90;99.90;;;;;;5003985;28;20412;-71
2023/11/01 08:16:40;;;;;;;4.45;0.70;;;21.30;99.90;;;;;;5007924;28;20425;-71
2023/11/01 08:19:05;;;;;;;6.50;0.85;;;21.10;99.90;;;;;;5008507;28;20397;-72
2023/11/01 08:21:32;;;;;;;4.72;0.70;;;20.70;99.90;;;;;;5008989;28;20396;-72
2023/11/01 08:23:57;;;;;;;5.90;0.80;;;20.50;99.90;;;;;;5008255;28;20405;-72
2023/11/01 08:26:23;;;;;;;4.60;0.80;;;21.00;99.90;;;;;;5005157;28;20902;-72
2023/11/01 08:28:49;;;;;;;6.50;0.70;;;22.50;99.90;;;;;;4996265;28;20435;-72
2023/11/01 08:31:15;;;;;;;4.80;0.70;;;21.90;99.90;;;;;;5008130;28;20729;-73
2023/11/01 08:33:40;;;;;;;5.90;0.50;;;21.70;99.90;;;;;;5001239;28;20481;-73
2023/11/01 08:36:06;;;;;;;4.50;0.70;;;21.20;99.90;;;;;;5004413;28;20416;-73
2023/11/01 08:38:32;;;;;;;4.95;0.90;;;21.40;99.90;;;;;;5006444;28;20436;-73
2023/11/01 08:40:58;;;;;;;6.30;0.70;;;21.50;99.90;;;;;;4999329;28;20412;-73
2023/11/01 08:43:24;;;;;;;4.45;0.60;;;21.20;99.90;;;;;;5006006;28;20495;-73
2023/11/01 08:45:49;;;;;;;4.70;0.63;;;21.00;99.90;;;;;;5003229;28;20417;-73
2023/11/01 08:48:16;;;;;;;4.53;0.60;;;21.40;99.90;;;;;;4996579;28;20433;-73
2023/11/01 08:50:42;;;;;;;4.50;0.60;;;21.10;99.90;;;;;;4996552;28;20928;-73
2023/11/01 08:53:07;;;;;;;4.50;0.75;;;21.20;99.90;;;;;;5004033;28;20416;-72
2023/11/01 08:55:35;;;;;;;7.50;0.77;;;;;;;;;;4997559;28;20421;-73
2023/11/01 08:58:00;;;;;;;5.40;0.55;;;22.20;99.90;;;;;;5006183;28;20883;-73
2023/11/01 09:00:26;;;;;;;4.80;0.70;;;22.00;99.90;;;;;;5005340;28;20407;-73
2023/11/01 09:02:51;;;;;;;6.50;0.50;;;22.40;99.90;;;;;;5004635;28;20438;-72
2023/11/01 09:05:18;;;;;;;4.40;0.50;;;23.00;99.90;;;;;;5004161;28;20535;-71
2023/11/01 09:07:44;;;;;;;4.95;0.70;;;22.60;99.90;;;;;;5005438;28;20416;-72
2023/11/01 09:10:09;;;;;;;4.40;0.60;;;22.60;99.90;;;;;;5005444;28;20908;-73
2023/11/01 09:12:35;;;;;;;5.20;0.80;;;22.40;99.90;;;;;;5003577;28;20421;-73
2023/11/01 09:15:00;;;;;;;4.90;0.70;;;22.10;99.90;;;;;;5003609;28;20424;-73
2023/11/01 09:17:26;;;;;;;4.40;0.53;;;22.30;99.90;;;;;;5008750;28;20412;-73
2023/11/01 09:19:52;;;;;;;4.90;0.60;;;22.60;99.90;;;;;;5002974;28;20409;-73
2023/11/01 09:22:17;;;;;;;4.40;0.60;;;22.60;99.90;;;;;;5005749;28;20440;-73
2023/11/01 09:24:43;;;;;;;5.03;0.60;;;22.10;99.90;;;;;;5004198;28;20458;-72
2023/11/01 09:27:09;;;;;;;4.87;0.70;;;21.70;99.90;;;;;;5007166;28;20392;-73
2023/11/01 09:29:34;;;;;;;5.40;0.70;;;21.50;99.90;;;;;;5006852;28;20404;-73
2023/11/01 09:32:00;;;;;;;4.30;0.50;;;20.70;99.90;;;;;;5000339;28;20525;-73
2023/11/01 09:34:26;;;;;;;5.95;0.95;;;21.00;99.90;;;;;;5008143;28;20427;-73
2023/11/01 09:36:52;;;;;;;4.43;0.57;;;22.10;99.90;;;;;;5007238;28;20401;-73
2023/11/01 09:39:18;;;;;;;4.60;0.50;;;23.00;99.90;;;;;;5005981;28;20503;-73
2023/11/01 09:41:53;;;;;;;4.32;0.57;;;22.50;99.90;;;;;;5007485;28;20408;-73
2023/11/01 09:44:19;;;;;;;4.40;0.60;;;21.70;99.90;;;;;;5007707;28;20416;-73
2023/11/01 09:46:47;;;;;;;4.50;0.70;;;21.80;99.90;;;;;;5007038;28;20392;-73
2023/11/01 09:49:15;;;;;;;5.72;0.85;;;21.90;99.90;;;;;;5007649;28;20455;-72
2023/11/01 09:51:42;;;;;;;4.40;0.60;;;21.00;99.90;;;;;;5007017;28;20401;-73
2023/11/01 09:54:11;;;;;;;4.43;0.70;;;21.50;99.90;;;;;;5007246;28;20453;-71
2023/11/01 09:56:46;;;;;;;4.50;0.70;;;21.40;99.90;;;;;;5007580;28;20474;-72
2023/11/01 09:59:12;;;;;;;4.32;0.52;;;20.70;99.90;;;;;;5006473;28;20409;-73
2023/11/01 10:01:39;;;;;;;4.30;0.50;;;20.40;99.90;;;;;;5005721;28;20758;-73
2023/11/01 10:04:06;;;;;;;4.20;0.40;;;20.50;99.90;;;;;;4989163;28;20394;-73
2023/11/01 10:06:33;;;;;;;4.40;0.60;;;20.70;99.90;;;;;;5003453;28;20414;-73
2023/11/01 10:08:59;;;;;;;4.10;0.40;;;20.70;99.90;;;;;;4995024;28;20492;-73
2023/11/01 10:11:25;;;;;;;4.40;0.60;;;20.80;99.90;;;;;;5007321;28;20489;-73
2023/11/01 10:13:51;;;;;;;4.50;0.60;;;20.80;99.90;;;;;;5007598;28;20441;-73
2023/11/01 10:16:17;;;;;;;4.50;0.70;;;21.60;99.90;;;;;;5003477;28;20451;-73
2023/11/01 10:18:43;;;;;;;5.50;0.50;;;22.00;99.90;;;;;;5009591;28;20416;-73
2023/11/01 10:21:09;;;;;;;4.60;0.70;;;22.40;99.90;;;;;;5010032;28;20436;-73
2023/11/01 10:23:35;;;;;;;4.60;0.68;;;22.30;99.90;;;;;;5006340;28;20499;-73
2023/11/01 10:26:01;;;;;;;4.30;0.60;;;21.80;99.90;;;;;;5010655;28;20496;-73
2023/11/01 10:28:28;;;;;;;4.40;0.50;;;21.80;99.90;;;;;;5012440;28;20412;-73
2023/11/01 10:30:57;;;;;;;4.50;0.50;;;22.00;99.90;;;;;;5010914;28;20403;-74
2023/11/01 10:33:23;;;;;;;5.70;0.70;;;22.60;99.90;;;;;;5008922;28;21029;-73
2023/11/01 10:35:59;;;;;;;5.10;0.70;;;22.50;99.90;;;;;;5009692;28;20415;-73
2023/11/01 10:38:26;;;;;;;5.80;0.40;;;21.80;99.90;;;;;;5009061;28;20408;-73
2023/11/01 10:40:52;;;;;;;5.20;0.70;;;21.20;99.90;;;;;;5008912;28;20412;-73
2023/11/01 10:43:22;;;;;;;4.57;0.50;;;21.30;99.90;;;;;;5004745;28;20415;-73
2023/11/01 10:45:49;;;;;;;5.00;0.70;;;21.50;99.90;;;;;;5012157;28;20482;-73
2023/11/01 10:48:15;;;;;;;5.40;0.50;;;21.50;99.90;;;;;;5010768;28;20401;-74
2023/11/01 10:50:43;;;;;;;4.30;0.45;;;21.60;99.90;;;;;;5007802;28;20806;-74
2023/11/01 10:53:11;;;;;;;4.97;0.90;;;21.20;99.90;;;;;;5009594;28;20424;-74
2023/11/01 10:55:37;;;;;;;4.30;0.55;;;21.60;99.90;;;;;;5007045;28;20404;-74
2023/11/01 10:58:05;;;;;;;5.13;1.30;;;21.90;99.90;;;;;;5006814;28;20401;-74
2023/11/01 11:00:40;;;;;;;5.10;0.77;;;21.60;99.90;;;;;;5005287;28;20420;-74
2023/11/01 11:03:22;;;;;;;4.50;0.70;;;21.80;99.90;;;;;;5010235;28;20846;-73
2023/11/01 11:05:49;;;;;;;4.40;0.50;;;21.80;99.90;;;;;;5013777;28;20413;-74
2023/11/01 11:08:15;;;;;;;4.65;0.50;;;21.20;99.90;;;;;;5007889;28;20419;-74
2023/11/01 11:10:43;;;;;;;4.20;0.40;;;20.70;99.90;;;;;;5008303;28;20412;-74
2023/11/01 11:13:17;;;;;;;4.50;0.60;;;20.50;99.90;;;;;;5006490;28;20813;-74
2023/11/01 11:15:46;;;;;;;4.50;0.60;;;20.00;99.90;;;;;;5004074;28;20413;-73
2023/11/01 11:18:12;;;;;;;4.43;0.55;;;19.90;99.90;;;;;;5003974;28;20519;-74
2023/11/01 11:20:40;;;;;;;4.20;0.50;;;19.80;99.90;;;;;;5007547;28;20487;-74
2023/11/01 11:23:06;;;;;;;4.40;0.60;;;19.70;99.90;;;;;;4992848;28;20410;-73
2023/11/01 11:25:38;;;;;;;4.30;0.40;;;19.60;99.90;;;;;;5004358;28;20408;-74
2023/11/01 11:28:10;;;;;;;5.10;0.80;;;19.60;99.90;;;;;;5008159;28;20409;-73
2023/11/01 11:30:47;;;;;;;6.30;0.70;;;19.50;99.90;;;;;;5009123;28;20397;-74
2023/11/01 11:33:14;;;;;;;6.30;0.70;;;19.20;99.90;;;;;;5007687;28;20443;-73
2023/11/01 11:35:41;;;;;;;4.10;0.40;;;19.10;99.90;;;;;;5007710;28;20409;-74
2023/11/01 11:38:33;;;;;;;4.40;0.70;;;19.40;99.90;;;;;;5001158;28;20772;-73
2023/11/01 11:41:16;;;;;;;4.30;0.60;;;19.40;99.90;;;;;;5004533;28;20776;-73
2023/11/01 11:44:08;;;;;;;7.30;0.70;;;19.20;99.90;;;;;;5006758;28;20463;-73
2023/11/01 11:46:41;;;;;;;6.05;0.88;;;19.30;99.90;;;;;;5007225;28;20412;-73
2023/11/01 11:49:26;;;;;;;4.20;0.40;;;19.30;99.90;;;;;;5004805;28;20504;-74
2023/11/01 11:51:54;;;;;;;5.80;0.60;;;19.30;99.90;;;;;;5010997;28;20776;-74
2023/11/01 11:54:22;;;;;;;7.60;0.80;;;19.30;99.90;;;;;;5015318;28;20451;-74
2023/11/01 11:56:52;;;;;;;4.70;0.53;;;19.40;99.90;;;;;;5006864;28;20436;-72
2023/11/01 11:59:24;;;;;;;4.40;0.70;;;19.30;99.90;;;;;;5007614;28;20436;-71
2023/11/01 12:01:53;;;;;;;4.40;0.50;;;19.50;99.90;;;;;;5003495;28;20455;-71
2023/11/01 12:04:20;;;;;;;4.50;0.60;;;19.30;99.90;;;;;;5002913;28;20516;-71
2023/11/01 12:06:50;;;;;;;4.38;0.70;;;19.10;99.90;;;;;;5008205;28;20416;-74
2023/11/01 12:09:18;;;;;;;7.80;0.90;;;19.10;99.90;;;;;;5008010;28;20435;-73
2023/11/01 12:11:51;;;;;;;4.20;0.50;;;18.90;99.90;;;;;;4999478;28;20779;-73
2023/11/01 12:14:21;;;;;;;4.60;0.50;;;18.90;99.90;;;;;;5002464;28;20424;-73
2023/11/01 12:16:48;;;;;;;4.60;0.45;;;19.00;99.90;;;;;;5001910;28;20419;-73
2023/11/01 12:19:18;;;;;;;4.40;0.60;;;18.90;99.90;;;;;;5000183;28;20502;-71
2023/11/01 12:22:04;;;;;;;4.43;0.60;;;18.70;99.90;;;;;;4997167;28;20413;-71
2023/11/01 12:24:37;;;;;;;6.30;0.80;;;18.70;99.90;;;;;;5003512;28;20428;-70
2023/11/01 12:27:13;;;;;;;4.30;0.60;;;18.90;99.90;;;;;;5001991;28;20432;-72
2023/11/01 12:29:41;;;;;;;4.38;0.50;;;18.90;99.90;;;;;;5000632;28;20462;-70
2023/11/01 12:32:14;;;;;;;4.60;0.70;;;18.80;99.90;;;;;;5001779;28;20535;-71
2023/11/01 12:35:02;;;;;;;4.30;0.50;;;18.90;99.90;;;;;;5010180;28;20407;-71
2023/11/01 12:37:29;;;;;;;5.30;0.70;;;19.10;99.90;;;;;;5002441;28;20425;-71
2023/11/01 12:40:07;;;;;;;4.50;0.70;;;19.20;99.90;;;;;;5001897;28;21275;-71
2023/11/01 12:42:34;;;;;;;4.40;0.47;;;19.10;99.90;;;;;;4998427;28;20427;-71
2023/11/01 12:45:00;;;;;;;4.70;0.70;;;18.80;99.90;;;;;;5003368;28;20404;-71
2023/11/01 12:47:31;;;;;;;4.20;0.50;;;19.00;99.90;;;;;;5009477;28;20409;-71
2023/11/01 12:49:58;;;;;;;4.18;0.43;;;18.90;99.90;;;;;;5002923;28;20982;-71
2023/11/01 12:52:24;;;;;;;4.70;0.80;;;18.90;99.90;;;;;;4996050;28;20433;-71
2023/11/01 12:54:50;;;;;;;4.70;0.90;;;18.70;99.90;;;;;;4990882;28;20493;-71
2023/11/01 12:57:16;;;;;;;4.70;0.70;;;18.30;99.90;;;;;;5005167;28;20408;-71